Union Hill, Louisiana
Current Conditions -  °F | °C
As of 8:15 PM on Friday 28 Nov 2014 (Local Time) from KIER Reporting Station
Clear Clear  
Wind Chill: 51°   Ceiling: Unl
Heat Index: 51°   Visibility: 10mi
Dew Point: 47°   Wind: 5mph
Humidity: 87%   Direction: 170°S
Pressure: 30.17"   Gusts: NA
Location:  31.6668°N, 92.8023°W
Report Text: KIER 290215Z AUTO 17004KT 10SM CLR 10/08 A3017 RMK AO2 T01030083
Loading
Personal Weather Stations






























Interactive Weather Map New forecast layout! Learn more

10-Day Weather Forecast

Advertisements
Track Severe Weather on mobile